Galva, IA (51020)

9:08 PM CDT on April 01, 2015 (GMT -0500)
Holstein Ag Services, LLC | | Change Station
CLOSE
Current Station
Personal Weather Station
Location: Holstein, IA
Elevation: 1381 ft
Nearby Weather Stations

Elev 1381 ft 42.50 °N, 95.54 °W | Updated 18 seconds ago

Partly Cloudy
Partly Cloudy
58.9 °F
Feels Like 58.9 °F
N
0.0
Wind Variable Wind from WSW
Gusts 0.0 mph

Today
High -- | Low -- °F
--% Chance of Precip.
Yesterday
High -- | Low -- °F
Precip. -- in
7:04 AM 7:47 PM
Waxing Gibbous, 95% visible
Pressure 29.63 in
Visibility 9.0 miles
Clouds Mostly Cloudy 6000 ft
Overcast 7000 ft
Dew Point 54 °F
Humidity 85%
Rainfall 0.56 in
Snow Depth Not available.
UV 0 out of 12
Pollen 7.10 out of 12
Air Quality Not available.
Flu Activity Not available.
METAR KSLB 020155Z AUTO 28032G39KT 9SM BKN060 OVC070 19/09 A2963 RMK AO2

More Conditions Fewer Conditions

Pressure 29.63 in
Visibility 9.0 miles
Clouds Mostly Cloudy 6000 ft
Overcast 7000 ft
Dew Point 54 °F
Humidity 85%
Rainfall 0.56 in
Snow Depth Not available.
UV 0 out of 12
Pollen 7.10 out of 12
Air Quality Not available.
Flu Activity Not available.
METAR KSLB 020155Z AUTO 28032G39KT 9SM BKN060 OVC070 19/09 A2963 RMK AO2

More Conditions Fewer Conditions

10-Day Weather Forecast

Almanac

Astronomy

Apr. 01, 2015 Rise Set
Actual Time
Civil Twilight
Nautical Twilight
Astronomical Twilight
Moon
Length of Visible Light
Length of Day
Tomorrow will be .
, % of the Moon is Illuminated

Today's Extremes

State Highs State Lows

Community

WunderPhotos

Upload Photos

1,810,153 photos uploaded!

WunderBlogs® & News

Nearby

Air Quality

  Air Quality AQ Index Pollutant
Not available.

Snow Depth

Station Depth Elevation

Earthquake Activity

City Distance Mag. Time & Date
Minimum magnitude displayed is 2.5.

Coastal Water Temperatures

Place Temperature

Stations

Nearby Weather Stations

Station Location Temp. Windchill Dew Point Humidity Wind Precip. Elev Updated Type
                   
Severe Thunderstorm Watch
Statement as of 9:03 PM CDT on April 01, 2015

Severe Thunderstorm Watch 15 remains in effect until 100 am CDT
for the following locations


IA
. Iowa counties included are

Audubon Buena Vista Calhoun
Carroll Cherokee Clay
Crawford Harrison Ida
Monona Palo Alto Pocahontas
Pottawattamie SAC Shelby
Woodbury